Time;durP1;ratioP1;P1;durP2;ratioP2;P2;SDS_P1;SDS_P2;PMS_P1;PMS_P2;Temp;Humidity;BMP_temperature;BMP_pressure;BME280_temperature;BME280_humidity;BME280_pressure;Samples;Min_cycle;Max_cycle;Signal;HPM_P1;HPM_P2
2023/07/05 00:00:23;;;;;;;46.80;30.00;;;28.30;99.90;;;;;;5055951;28;20013;-68
2023/07/05 00:02:51;;;;;;;50.75;29.58;;;28.20;99.90;;;;;;5050100;28;20025;-68
2023/07/05 00:05:18;;;;;;;52.35;31.33;;;28.20;99.90;;;;;;5055489;28;20055;-69
2023/07/05 00:07:44;;;;;;;50.38;29.95;;;28.40;99.90;;;;;;5054861;28;20017;-67
2023/07/05 00:10:11;;;;;;;51.50;29.13;;;28.40;99.90;;;;;;5053878;28;20032;-66
2023/07/05 00:12:38;;;;;;;47.55;30.45;;;28.20;99.90;;;;;;5063578;28;20016;-68
2023/07/05 00:15:06;;;;;;;59.25;30.58;;;28.30;99.90;;;;;;5061725;28;20124;-68
2023/07/05 00:17:33;;;;;;;53.50;33.20;;;28.40;99.90;;;;;;5070404;28;20099;-68
2023/07/05 00:20:00;;;;;;;68.50;35.25;;;28.40;99.90;;;;;;5063551;28;20067;-69
2023/07/05 00:22:27;;;;;;;51.33;33.58;;;28.40;99.90;;;;;;5071539;28;20100;-68
2023/07/05 00:24:55;;;;;;;57.72;33.67;;;28.40;99.90;;;;;;5064465;28;20024;-69
2023/07/05 00:27:25;;;;;;;47.53;30.45;;;28.50;99.90;;;;;;5067959;28;20481;-69
2023/07/05 00:29:53;;;;;;;45.28;29.15;;;28.40;99.90;;;;;;5066324;22;20052;-68
2023/07/05 00:32:20;;;;;;;55.58;32.20;;;28.40;99.90;;;;;;5035268;28;20026;-69
2023/07/05 00:34:47;;;;;;;57.90;35.33;;;28.60;99.90;;;;;;5035070;28;20486;-67
2023/07/05 00:37:14;;;;;;;57.65;35.08;;;28.50;99.90;;;;;;5034670;28;20030;-68
2023/07/05 00:39:41;;;;;;;57.53;34.75;;;28.80;99.90;;;;;;5034920;28;20018;-68
2023/07/05 00:42:07;;;;;;;46.80;29.25;;;28.80;99.90;;;;;;5034728;28;20040;-68
2023/07/05 00:44:34;;;;;;;53.83;31.77;;;28.70;99.90;;;;;;5034497;28;20021;-71
2023/07/05 00:47:06;;;;;;;56.72;33.22;;;28.60;99.90;;;;;;5023962;28;20425;-68
2023/07/05 00:49:37;;;;;;;61.53;40.88;;;28.60;99.90;;;;;;5023458;28;20041;-67
2023/07/05 00:52:10;;;;;;;57.83;39.38;;;28.70;99.90;;;;;;5038875;28;20029;-67
2023/07/05 00:54:42;;;;;;;69.13;40.83;;;28.60;99.90;;;;;;5043115;28;20040;-68
2023/07/05 00:57:12;;;;;;;66.18;39.17;;;28.60;99.90;;;;;;5034581;28;20446;-68
2023/07/05 00:59:46;;;;;;;119.10;102.57;;;28.70;99.90;;;;;;5028170;28;20029;-67
2023/07/05 01:02:14;;;;;;;306.17;274.13;;;28.70;99.90;;;;;;5025874;28;20455;-67
2023/07/05 01:04:41;;;;;;;73.82;45.83;;;28.70;99.90;;;;;;5023895;28;20018;-69
2023/07/05 01:07:08;;;;;;;67.40;43.67;;;28.80;99.90;;;;;;5024179;28;20022;-67
2023/07/05 01:09:34;;;;;;;82.72;66.03;;;28.90;99.90;;;;;;5026529;28;20467;-68
2023/07/05 01:12:09;;;;;;;71.18;50.30;;;28.90;99.90;;;;;;5025809;28;20104;-68
2023/07/05 01:14:57;;;;;;;81.82;56.58;;;29.10;99.90;;;;;;5039782;28;20512;-67
2023/07/05 01:17:24;;;;;;;74.72;46.92;;;29.10;99.90;;;;;;5025093;28;20049;-68
2023/07/05 01:20:14;;;;;;;76.38;49.00;;;29.10;99.90;;;;;;5012531;28;20017;-68
2023/07/05 01:23:10;;;;;;;76.95;48.10;;;29.10;99.90;;;;;;5024593;28;20041;-67
2023/07/05 01:25:48;;;;;;;76.20;53.25;;;29.20;99.90;;;;;;5027484;28;20133;-66
2023/07/05 01:28:40;;;;;;;79.80;48.47;;;29.30;99.90;;;;;;5027924;28;20021;-66
2023/07/05 01:31:13;;;;;;;98.50;84.78;;;29.20;99.90;;;;;;5002523;28;20087;-65
2023/07/05 01:33:54;;;;;;;84.25;68.88;;;29.30;99.90;;;;;;5007662;28;20021;-66
2023/07/05 01:36:20;;;;;;;89.80;80.05;;;29.30;99.90;;;;;;5003168;28;20025;-67
2023/07/05 01:38:47;;;;;;;78.68;64.60;;;29.40;99.90;;;;;;5007897;28;20386;-67
2023/07/05 01:41:14;;;;;;;89.97;80.07;;;29.40;99.90;;;;;;5005082;28;20018;-70
2023/07/05 01:43:43;;;;;;;66.10;40.00;;;29.40;99.90;;;;;;5010819;28;20101;-68
2023/07/05 01:46:20;;;;;;;59.80;37.17;;;29.50;99.90;;;;;;5007713;28;20014;-68
2023/07/05 01:48:53;;;;;;;55.45;35.55;;;29.60;99.90;;;;;;5007804;28;20013;-66
2023/07/05 01:51:33;;;;;;;82.45;51.58;;;29.50;99.90;;;;;;5004999;28;20105;-71
2023/07/05 01:54:10;;;;;;;51.90;33.95;;;29.60;99.90;;;;;;5003838;28;20145;-71
2023/07/05 01:57:00;;;;;;;47.28;30.60;;;29.70;99.90;;;;;;5003199;28;20022;-70
2023/07/05 01:59:32;;;;;;;44.72;29.30;;;29.70;99.90;;;;;;5003062;28;20015;-71
2023/07/05 02:01:59;;;;;;;;;;;29.70;99.90;;;;;;5002005;28;20069;-70
2023/07/05 02:04:28;;;;;;;49.20;30.50;;;29.70;99.90;;;;;;5004283;28;20004;-71
2023/07/05 02:06:55;;;;;;;51.15;30.85;;;29.90;99.90;;;;;;4999174;28;20027;-71
2023/07/05 02:09:22;;;;;;;63.33;31.65;;;29.90;99.90;;;;;;4993537;28;20022;-71
2023/07/05 02:11:48;;;;;;;47.55;28.67;;;29.90;99.90;;;;;;4993709;28;20479;-72
2023/07/05 02:14:15;;;;;;;44.83;27.75;;;29.90;99.90;;;;;;4993770;28;20023;-72
2023/07/05 02:16:44;;;;;;;41.00;25.42;;;30.00;99.90;;;;;;4993491;28;20074;-72
2023/07/05 02:19:11;;;;;;;39.35;27.48;;;30.00;99.90;;;;;;4994049;28;20410;-72
2023/07/05 02:21:37;;;;;;;36.78;24.50;;;30.00;99.90;;;;;;4993857;28;20049;-72
2023/07/05 02:24:05;;;;;;;185.65;158.02;;;30.00;99.90;;;;;;5043174;23;20503;-70
2023/07/05 02:26:33;;;;;;;34.05;23.42;;;30.10;99.90;;;;;;5033139;28;20065;-72
2023/07/05 02:29:00;;;;;;;35.55;24.58;;;30.10;99.90;;;;;;5033150;28;20017;-72
2023/07/05 02:31:28;;;;;;;35.75;23.15;;;30.20;99.90;;;;;;5032963;28;20080;-72
2023/07/05 02:33:56;;;;;;;37.13;21.77;;;30.10;99.90;;;;;;5033110;28;20367;-72
2023/07/05 02:36:22;;;;;;;38.13;21.20;;;30.20;99.90;;;;;;5031591;28;20032;-73
2023/07/05 02:38:51;;;;;;;30.55;21.73;;;30.30;99.90;;;;;;5032302;28;20029;-72
2023/07/05 02:41:18;;;;;;;35.67;21.65;;;30.20;99.90;;;;;;5032658;28;20079;-70
2023/07/05 02:43:44;;;;;;;30.73;19.48;;;30.30;99.90;;;;;;5033088;28;20052;-72
2023/07/05 02:46:11;;;;;;;36.05;19.63;;;30.30;99.90;;;;;;5033002;28;20049;-71
2023/07/05 02:48:37;;;;;;;25.20;18.02;;;30.60;99.90;;;;;;5033154;28;20116;-72
2023/07/05 02:51:04;;;;;;;34.03;21.60;;;30.60;99.90;;;;;;5032993;28;20022;-73
2023/07/05 02:53:30;;;;;;;24.30;18.85;;;30.60;99.90;;;;;;5032904;28;20029;-70
2023/07/05 02:55:57;;;;;;;32.80;20.90;;;30.70;99.90;;;;;;5032758;28;20025;-71
2023/07/05 02:58:23;;;;;;;30.70;18.33;;;30.80;99.90;;;;;;5033031;28;20056;-71
2023/07/05 03:00:50;;;;;;;258.00;193.68;;;30.80;99.90;;;;;;5032906;28;20018;-72
2023/07/05 03:03:17;;;;;;;26.98;18.33;;;30.90;99.90;;;;;;5032766;28;20037;-71
2023/07/05 03:05:43;;;;;;;22.45;17.08;;;31.00;99.90;;;;;;5032842;28;20126;-72
2023/07/05 03:08:10;;;;;;;24.83;16.67;;;31.00;99.90;;;;;;5032844;28;20087;-72
2023/07/05 03:10:39;;;;;;;45.45;18.98;;;31.00;99.90;;;;;;5032444;28;20017;-67
2023/07/05 03:13:06;;;;;;;31.70;17.83;;;30.90;99.90;;;;;;5032586;28;20083;-69
2023/07/05 03:15:32;;;;;;;29.38;18.20;;;30.90;99.90;;;;;;5032511;28;20025;-68
2023/07/05 03:17:59;;;;;;;49.97;29.30;;;31.00;99.90;;;;;;5033088;28;20017;-68
2023/07/05 03:20:25;;;;;;;45.22;23.90;;;30.90;99.90;;;;;;5036246;28;20018;-67
2023/07/05 03:22:52;;;;;;;29.42;19.00;;;30.90;99.90;;;;;;5036274;28;20041;-67
2023/07/05 03:25:19;;;;;;;25.25;17.73;;;30.90;99.90;;;;;;5036144;28;20022;-68
2023/07/05 03:27:45;;;;;;;25.17;17.58;;;31.00;99.90;;;;;;5036345;28;20096;-68
2023/07/05 03:30:12;;;;;;;59.30;40.15;;;30.90;99.90;;;;;;5036085;28;20018;-65
2023/07/05 03:32:43;;;;;;;67.65;48.28;;;30.80;99.90;;;;;;5028996;28;20498;-66
2023/07/05 03:35:10;;;;;;;31.92;19.98;;;30.90;99.90;;;;;;5017129;28;20036;-68
2023/07/05 03:37:37;;;;;;;23.77;16.77;;;30.90;99.90;;;;;;5016180;28;20028;-67
2023/07/05 03:40:04;;;;;;;28.50;16.92;;;30.80;99.90;;;;;;5015957;28;20022;-67
2023/07/05 03:42:30;;;;;;;36.83;24.02;;;30.90;99.90;;;;;;5019337;28;20022;-65
2023/07/05 03:44:57;;;;;;;31.75;19.23;;;30.90;99.90;;;;;;5033096;28;20457;-67
2023/07/05 03:47:23;;;;;;;32.97;19.48;;;30.90;99.90;;;;;;5025859;28;20076;-69
2023/07/05 03:49:50;;;;;;;31.17;20.27;;;31.00;99.90;;;;;;5038163;28;20387;-67
2023/07/05 03:52:16;;;;;;;36.45;20.08;;;31.10;99.90;;;;;;5031082;28;20274;-66
2023/07/05 03:54:43;;;;;;;50.97;29.73;;;31.10;99.90;;;;;;5034080;28;20022;-67
2023/07/05 03:57:09;;;;;;;39.33;20.63;;;31.20;99.90;;;;;;5035363;28;20040;-69
2023/07/05 03:59:36;;;;;;;36.33;22.60;;;31.10;99.90;;;;;;5035661;28;20063;-66
2023/07/05 04:02:02;;;;;;;28.67;18.55;;;31.20;99.90;;;;;;5035498;28;20049;-68
2023/07/05 04:04:29;;;;;;;33.50;23.73;;;31.20;99.90;;;;;;5035889;28;20045;-68
2023/07/05 04:06:55;;;;;;;78.32;51.30;;;31.20;99.90;;;;;;5035455;28;20025;-68
2023/07/05 04:09:22;;;;;;;32.60;21.00;;;31.20;99.90;;;;;;5035259;28;20532;-68
2023/07/05 04:11:48;;;;;;;40.63;22.23;;;31.20;99.90;;;;;;5038993;28;20021;-69
2023/07/05 04:14:20;;;;;;;31.42;20.90;;;31.30;99.90;;;;;;5037319;28;20142;-68
2023/07/05 04:16:47;;;;;;;26.08;17.48;;;31.30;99.90;;;;;;5038527;28;20025;-68
2023/07/05 04:19:15;;;;;;;28.90;18.38;;;31.40;99.90;;;;;;5036494;28;20386;-69
2023/07/05 04:21:41;;;;;;;27.25;19.95;;;31.30;99.90;;;;;;5029811;28;20024;-74
2023/07/05 04:24:08;;;;;;;29.02;18.90;;;31.20;99.90;;;;;;5036059;28;20512;-73
2023/07/05 04:26:35;;;;;;;27.92;19.65;;;31.20;99.90;;;;;;5050522;28;20470;-68
2023/07/05 04:29:02;;;;;;;29.35;20.50;;;31.20;99.90;;;;;;5043200;28;20052;-73
2023/07/05 04:31:30;;;;;;;64.20;36.67;;;31.30;99.90;;;;;;5046482;28;20052;-73
2023/07/05 04:33:58;;;;;;;30.10;19.38;;;31.40;99.90;;;;;;5047617;28;20021;-66
2023/07/05 04:36:25;;;;;;;636.38;500.33;;;31.40;99.90;;;;;;5033592;28;20466;-68
2023/07/05 04:38:52;;;;;;;43.88;28.10;;;31.30;99.90;;;;;;5020187;28;20017;-66
2023/07/05 04:41:24;;;;;;;28.08;19.50;;;31.40;99.90;;;;;;5029367;28;20029;-67
2023/07/05 04:43:51;;;;;;;36.22;20.10;;;31.60;99.90;;;;;;5028984;28;20033;-67
2023/07/05 04:46:18;;;;;;;35.45;23.45;;;31.60;99.90;;;;;;5035380;28;20030;-66
2023/07/05 04:48:45;;;;;;;42.30;28.73;;;32.00;99.90;;;;;;5047673;28;20086;-68
2023/07/05 04:51:12;;;;;;;98.70;71.38;;;32.20;99.90;;;;;;5056054;28;20017;-68
2023/07/05 04:53:38;;;;;;;291.40;260.65;;;32.00;99.90;;;;;;5055308;28;20477;-67
2023/07/05 04:56:05;;;;;;;36.50;22.25;;;32.00;99.90;;;;;;5055022;28;20063;-67
2023/07/05 04:58:32;;;;;;;33.90;21.10;;;31.90;99.90;;;;;;5056063;28;20025;-67
2023/07/05 05:01:04;;;;;;;37.47;24.50;;;31.90;99.90;;;;;;5038694;28;20038;-66
2023/07/05 05:03:31;;;;;;;53.65;35.03;;;31.90;99.90;;;;;;5027563;28;20075;-66
2023/07/05 05:05:58;;;;;;;38.38;24.40;;;31.80;99.90;;;;;;5020678;28;20033;-67
2023/07/05 05:08:25;;;;;;;39.35;26.02;;;32.00;99.90;;;;;;5026440;28;20230;-67
2023/07/05 05:10:58;;;;;;;33.65;22.08;;;32.00;99.90;;;;;;5035004;28;20362;-66
2023/07/05 05:13:24;;;;;;;444.73;398.13;;;;;;;;;;5035008;28;20030;-67
2023/07/05 05:15:51;;;;;;;69.60;54.25;;;;;;;;;;5035065;28;20021;-67
2023/07/05 05:18:18;;;;;;;213.73;193.50;;;;;;;;;;5034607;28;20017;-65
2023/07/05 05:20:45;;;;;;;44.15;32.75;;;;;;;;;;5029227;28;20028;-67
2023/07/05 05:23:12;;;;;;;35.50;26.17;;;;;;;;;;5015000;28;20561;-67
2023/07/05 05:25:42;;;;;;;239.43;203.13;;;;;;;;;;5015453;28;20116;-67
2023/07/05 05:28:09;;;;;;;146.38;94.90;;;;;;;;;;5014710;28;20049;-67
2023/07/05 05:30:36;;;;;;;148.20;95.63;;;;;;;;;;5014441;28;20494;-68
2023/07/05 05:33:03;;;;;;;34.20;22.27;;;;;;;;;;5014588;28;20026;-67
2023/07/05 05:35:31;;;;;;;22.85;17.00;;;;;;;;;;5012585;28;20033;-68
2023/07/05 05:37:58;;;;;;;25.38;18.17;;;;;;;;;;5024073;28;20032;-69
2023/07/05 05:40:25;;;;;;;106.70;67.88;;;;;;;;;;5029702;28;20030;-68
2023/07/05 05:42:52;;;;;;;31.60;19.67;;;;;;;;;;5023245;28;20067;-69
2023/07/05 05:45:18;;;;;;;30.95;19.63;;;;;;;;;;5015512;28;20025;-68
2023/07/05 05:47:45;;;;;;;32.42;20.63;;;;;;;;;;5015476;28;20025;-67
2023/07/05 05:50:12;;;;;;;27.38;18.88;;;;;;;;;;5014972;28;20113;-69
2023/07/05 05:52:38;;;;;;;190.93;172.85;;;;;;;;;;5014262;28;20364;-69
2023/07/05 05:55:05;;;;;;;26.35;16.73;;;;;;;;;;5014350;28;20163;-69
2023/07/05 05:57:32;;;;;;;31.35;18.58;;;;;;;;;;5024863;28;20017;-69
2023/07/05 05:59:58;;;;;;;28.92;19.00;;;33.30;99.90;;;;;;5014113;28;20379;-69
2023/07/05 06:02:25;;;;;;;116.80;76.55;;;33.20;99.90;;;;;;5014684;28;20116;-67
2023/07/05 06:04:52;;;;;;;28.80;19.02;;;33.20;99.90;;;;;;5014416;28;20025;-70
2023/07/05 06:07:19;;;;;;;26.17;17.63;;;33.30;99.90;;;;;;5014573;28;20148;-70
2023/07/05 06:09:49;;;;;;;28.20;19.35;;;33.30;99.90;;;;;;5014182;28;20026;-70
2023/07/05 06:12:16;;;;;;;30.65;20.15;;;33.40;99.90;;;;;;5013989;28;20471;-70
2023/07/05 06:14:43;;;;;;;31.88;20.10;;;33.40;99.90;;;;;;5014240;28;20030;-68
2023/07/05 06:17:11;;;;;;;27.48;19.65;;;33.30;99.90;;;;;;5013989;28;20399;-70
2023/07/05 06:19:38;;;;;;;274.13;239.23;;;33.20;99.90;;;;;;5024744;28;20025;-68
2023/07/05 06:22:05;;;;;;;31.77;19.42;;;33.10;99.90;;;;;;5014491;28;20063;-66
2023/07/05 06:24:32;;;;;;;28.88;19.58;;;33.10;99.90;;;;;;5013979;28;20427;-67
2023/07/05 06:26:59;;;;;;;31.33;20.23;;;33.00;99.90;;;;;;5014985;28;20592;-67
2023/07/05 06:29:25;;;;;;;31.05;21.58;;;32.90;99.90;;;;;;5013927;28;20053;-67
2023/07/05 06:31:52;;;;;;;28.20;18.70;;;32.90;99.90;;;;;;5014340;28;20030;-67
2023/07/05 06:34:18;;;;;;;343.05;305.55;;;32.90;99.90;;;;;;5014241;28;20398;-67
2023/07/05 06:36:45;;;;;;;41.75;25.38;;;32.90;99.90;;;;;;5014329;28;20491;-71
2023/07/05 06:39:12;;;;;;;124.20;97.38;;;32.80;99.90;;;;;;5013979;28;20510;-66
2023/07/05 06:41:38;;;;;;;41.95;29.98;;;32.80;99.90;;;;;;5014415;28;20475;-69
2023/07/05 06:44:05;;;;;;;33.97;25.10;;;32.80;99.90;;;;;;5013633;28;20029;-67
2023/07/05 06:46:31;;;;;;;30.02;18.73;;;32.80;99.90;;;;;;5013844;28;20029;-68
2023/07/05 06:48:58;;;;;;;27.98;20.30;;;32.80;99.90;;;;;;5013642;28;20030;-68
2023/07/05 06:51:25;;;;;;;31.50;20.50;;;32.70;99.90;;;;;;5013531;28;20022;-66
2023/07/05 06:53:51;;;;;;;98.65;89.97;;;32.80;99.90;;;;;;5017153;28;20087;-68
2023/07/05 06:56:18;;;;;;;34.83;21.65;;;32.70;99.90;;;;;;5017453;28;20022;-67
2023/07/05 06:58:46;;;;;;;87.70;79.55;;;32.80;99.90;;;;;;5018335;28;20181;-66
2023/07/05 07:01:12;;;;;;;140.27;122.70;;;32.80;99.90;;;;;;5017795;28;20030;-67
2023/07/05 07:03:39;;;;;;;30.17;19.02;;;32.70;99.90;;;;;;5017726;28;20026;-68
2023/07/05 07:06:06;;;;;;;31.85;21.17;;;32.70;99.90;;;;;;5017430;28;20034;-68
2023/07/05 07:08:34;;;;;;;30.80;20.88;;;32.80;99.90;;;;;;5017713;28;20108;-68
2023/07/05 07:11:02;;;;;;;254.98;227.13;;;32.90;99.90;;;;;;5018450;28;20026;-68
2023/07/05 07:13:30;;;;;;;33.05;20.17;;;32.90;99.90;;;;;;5017773;28;20038;-66
2023/07/05 07:16:00;;;;;;;26.70;18.70;;;32.90;99.90;;;;;;5017628;28;20063;-68
2023/07/05 07:18:27;;;;;;;30.77;19.20;;;32.90;99.90;;;;;;5017389;28;20364;-67
2023/07/05 07:20:55;;;;;;;34.03;29.08;;;33.00;99.90;;;;;;5017706;28;20033;-67
2023/07/05 07:23:23;;;;;;;56.08;50.78;;;33.10;99.90;;;;;;5017829;28;20049;-67
2023/07/05 07:26:10;;;;;;;28.30;19.42;;;33.10;99.90;;;;;;5017771;28;20089;-67
2023/07/05 07:28:37;;;;;;;132.77;120.85;;;33.20;99.90;;;;;;5017961;28;20038;-68
2023/07/05 07:31:21;;;;;;;538.42;481.70;;;33.30;99.90;;;;;;5017703;28;20410;-67
2023/07/05 07:33:48;;;;;;;22.42;16.33;;;33.30;99.90;;;;;;5032802;28;20088;-68
2023/07/05 07:36:18;;;;;;;25.27;15.32;;;33.30;99.90;;;;;;5017009;28;20034;-68
2023/07/05 07:38:45;;;;;;;21.55;15.80;;;33.30;99.90;;;;;;5026086;28;20025;-65
2023/07/05 07:41:24;;;;;;;21.73;15.07;;;33.30;99.90;;;;;;5038117;28;20408;-67
2023/07/05 07:43:55;;;;;;;29.90;16.73;;;33.40;99.90;;;;;;5029101;28;20017;-67
2023/07/05 07:46:25;;;;;;;23.05;16.17;;;33.40;99.90;;;;;;5021750;28;20040;-67
2023/07/05 07:48:57;;;;;;;37.03;18.58;;;33.40;99.90;;;;;;5033207;28;20021;-67
2023/07/05 07:51:25;;;;;;;;;;;33.50;99.90;;;;;;5026912;28;20024;-67
2023/07/05 07:53:52;;;;;;;31.17;21.08;;;33.60;99.90;;;;;;5028632;28;19920;-69
2023/07/05 07:56:21;;;;;;;54.72;42.15;;;33.60;99.90;;;;;;5020131;28;20445;-68
2023/07/05 07:58:53;;;;;;;625.10;544.15;;;33.50;99.90;;;;;;5019855;28;20449;-68
2023/07/05 08:01:29;;;;;;;29.98;17.00;;;33.60;99.90;;;;;;5018777;28;20095;-69
2023/07/05 08:03:58;;;;;;;24.83;15.52;;;33.50;99.90;;;;;;5026142;28;20014;-69
2023/07/05 08:06:40;;;;;;;27.25;16.08;;;33.50;99.90;;;;;;5045176;28;20512;-67
2023/07/05 08:09:07;;;;;;;;;;;33.40;99.90;;;;;;5042930;28;20051;-70
2023/07/05 08:11:35;;;;;;;20.65;13.90;;;33.30;99.90;;;;;;5035889;28;19905;-68
2023/07/05 08:14:05;;;;;;;28.80;19.80;;;33.30;99.90;;;;;;5030382;28;20482;-67
2023/07/05 08:16:31;;;;;;;317.38;276.75;;;33.30;99.90;;;;;;5035860;28;20025;-67
2023/07/05 08:18:58;;;;;;;26.88;15.25;;;33.20;99.90;;;;;;5037509;28;20356;-67
2023/07/05 08:21:25;;;;;;;26.42;16.38;;;33.20;99.90;;;;;;5037124;28;20026;-68
2023/07/05 08:23:52;;;;;;;44.60;23.92;;;33.20;99.90;;;;;;5033081;28;20041;-66
2023/07/05 08:26:18;;;;;;;47.25;23.63;;;33.30;99.90;;;;;;5035052;28;20385;-66
2023/07/05 08:28:45;;;;;;;31.08;18.08;;;33.30;99.90;;;;;;5033072;28;20025;-67
2023/07/05 08:31:12;;;;;;;25.50;17.63;;;33.30;99.90;;;;;;5032091;28;20471;-68
2023/07/05 08:33:40;;;;;;;44.03;28.83;;;33.20;99.90;;;;;;5026009;28;20034;-67
2023/07/05 08:36:10;;;;;;;30.02;21.08;;;33.20;99.90;;;;;;5034300;28;20465;-69
2023/07/05 08:38:40;;;;;;;39.30;34.28;;;33.20;99.90;;;;;;5031622;28;20367;-69
2023/07/05 08:41:27;;;;;;;705.95;613.45;;;33.20;99.90;;;;;;5032900;28;20017;-66
2023/07/05 08:44:01;;;;;;;27.13;16.38;;;33.20;99.90;;;;;;5030229;28;20087;-68
2023/07/05 08:46:30;;;;;;;26.67;17.42;;;33.10;99.90;;;;;;5027088;28;20064;-67
2023/07/05 08:49:12;;;;;;;35.50;19.85;;;33.20;99.90;;;;;;5037479;28;20025;-67
2023/07/05 08:51:41;;;;;;;28.35;11.60;;;33.20;99.90;;;;;;5030407;28;20029;-68
2023/07/05 08:54:12;;;;;;;31.52;11.38;;;32.80;99.90;;;;;;5032244;28;20504;-67
2023/07/05 08:56:47;;;;;;;34.00;12.13;;;32.20;99.90;;;;;;5037558;28;20033;-69
2023/07/05 08:59:28;;;;;;;26.30;13.00;;;31.90;99.90;;;;;;5036588;28;20071;-69
2023/07/05 09:01:56;;;;;;;31.77;18.90;;;31.60;99.90;;;;;;5035524;28;20098;-68
2023/07/05 09:04:29;;;;;;;29.98;16.40;;;31.40;99.90;;;;;;5036020;28;20021;-68
2023/07/05 09:07:03;;;;;;;39.90;19.20;;;31.20;99.90;;;;;;5032909;28;20040;-65
2023/07/05 09:09:59;;;;;;;39.78;18.35;;;31.20;99.90;;;;;;5034843;28;20041;-68
2023/07/05 09:12:49;;;;;;;51.50;20.63;;;30.90;99.90;;;;;;5027040;28;20042;-66
2023/07/05 09:15:23;;;;;;;37.30;20.98;;;30.60;99.90;;;;;;5034379;28;20052;-67
2023/07/05 09:18:02;;;;;;;21.40;11.85;;;30.40;99.90;;;;;;5034423;28;20418;-65
2023/07/05 09:20:32;;;;;;;20.85;12.00;;;30.30;99.90;;;;;;5034530;28;20423;-68
2023/07/05 09:23:02;;;;;;;25.65;16.52;;;30.20;99.90;;;;;;5035671;28;20065;-68
2023/07/05 09:25:30;;;;;;;28.13;16.10;;;30.10;99.90;;;;;;5034987;28;20052;-69
2023/07/05 09:28:23;;;;;;;24.10;13.63;;;30.10;99.90;;;;;;5035549;28;20025;-68
2023/07/05 09:30:51;;;;;;;29.92;13.45;;;30.10;99.90;;;;;;5010432;28;20117;-69
2023/07/05 09:33:27;;;;;;;20.70;12.75;;;30.00;99.90;;;;;;5034512;28;20060;-69
2023/07/05 09:35:54;;;;;;;24.15;12.98;;;30.00;99.90;;;;;;5035065;28;20032;-68
2023/07/05 09:38:34;;;;;;;20.25;10.35;;;29.90;99.90;;;;;;5032886;28;20017;-69
2023/07/05 09:41:23;;;;;;;20.05;10.68;;;29.80;99.90;;;;;;5034385;28;20072;-69
2023/07/05 09:43:50;;;;;;;22.52;14.02;;;29.80;99.90;;;;;;5032816;28;20017;-68
2023/07/05 09:46:33;;;;;;;49.75;31.70;;;29.60;99.90;;;;;;5034780;28;20028;-67
2023/07/05 09:48:59;;;;;;;106.22;70.65;;;29.60;99.90;;;;;;5034388;28;20386;-68
2023/07/05 09:51:27;;;;;;;55.65;33.60;;;29.50;99.90;;;;;;5034010;28;20025;-66
2023/07/05 09:53:58;;;;;;;54.35;38.83;;;29.50;99.90;;;;;;5033583;28;20034;-67
2023/07/05 09:56:27;;;;;;;32.30;20.90;;;29.50;99.90;;;;;;5032442;28;20259;-66
2023/07/05 09:59:20;;;;;;;39.92;24.85;;;29.50;99.90;;;;;;5035808;28;20028;-66
2023/07/05 10:01:53;;;;;;;96.10;58.42;;;29.50;99.90;;;;;;5029232;28;20209;-68
2023/07/05 10:04:27;;;;;;;72.78;47.00;;;29.40;99.90;;;;;;5034221;28;20026;-66
2023/07/05 10:06:54;;;;;;;36.85;23.00;;;29.40;99.90;;;;;;5034228;28;20049;-67
2023/07/05 10:09:24;;;;;;;25.83;17.35;;;29.50;99.90;;;;;;5033956;28;20109;-67
2023/07/05 10:11:53;;;;;;;154.80;118.88;;;29.50;99.90;;;;;;5032766;28;20470;-68
2023/07/05 10:14:27;;;;;;;106.00;76.10;;;29.40;99.90;;;;;;5034172;28;20033;-67
2023/07/05 10:16:57;;;;;;;74.82;52.10;;;29.40;99.90;;;;;;5033968;28;20358;-67
2023/07/05 10:19:29;;;;;;;93.22;69.68;;;29.30;99.90;;;;;;5034070;28;20034;-68
2023/07/05 10:22:01;;;;;;;119.20;83.70;;;29.40;99.90;;;;;;5029836;28;20021;-65
2023/07/05 10:24:30;;;;;;;85.85;53.88;;;29.20;99.90;;;;;;5032548;28;20072;-65
2023/07/05 10:27:11;;;;;;;49.17;30.48;;;29.40;99.90;;;;;;5031944;28;20029;-66
2023/07/05 10:29:41;;;;;;;52.28;33.53;;;29.40;99.90;;;;;;5031728;28;20038;-67
2023/07/05 10:32:19;;;;;;;45.60;29.38;;;29.20;99.90;;;;;;5031880;28;20478;-65
2023/07/05 10:34:50;;;;;;;76.18;51.03;;;29.10;99.90;;;;;;5031425;28;20029;-68
2023/07/05 10:37:30;;;;;;;270.80;202.35;;;29.20;99.90;;;;;;5031152;28;20033;-67
2023/07/05 10:39:57;;;;;;;89.78;65.97;;;29.10;99.90;;;;;;5030655;28;20076;-69
2023/07/05 10:42:27;;;;;;;87.43;68.28;;;29.10;99.90;;;;;;5044416;28;20052;-69
2023/07/05 10:44:53;;;;;;;102.53;79.95;;;29.00;99.90;;;;;;5046579;28;20064;-67
2023/07/05 10:47:21;;;;;;;44.38;32.70;;;28.90;99.90;;;;;;5042014;28;20392;-67
2023/07/05 10:49:52;;;;;;;54.30;38.67;;;28.80;99.90;;;;;;5046891;28;20023;-66
2023/07/05 10:52:21;;;;;;;68.93;53.40;;;28.80;99.90;;;;;;5034686;28;20025;-67
2023/07/05 10:54:50;;;;;;;31.55;20.13;;;28.90;99.90;;;;;;5033155;28;20473;-69
2023/07/05 10:57:21;;;;;;;70.25;46.45;;;28.90;99.90;;;;;;5032947;28;20359;-68
2023/07/05 10:59:57;;;;;;;32.45;21.67;;;29.00;99.90;;;;;;5029605;28;20109;-67
2023/07/05 11:02:37;;;;;;;42.80;33.05;;;28.80;99.90;;;;;;5031983;28;20418;-67
2023/07/05 11:05:16;;;;;;;54.03;42.10;;;28.80;99.90;;;;;;5030513;28;20021;-67
2023/07/05 11:07:44;;;;;;;326.33;252.05;;;28.80;99.90;;;;;;5032755;28;20058;-70
2023/07/05 11:10:14;;;;;;;123.97;89.47;;;28.50;99.90;;;;;;5033551;28;20018;-66
2023/07/05 11:12:42;;;;;;;23.90;13.77;;;28.40;99.90;;;;;;5030787;28;20025;-69
2023/07/05 11:15:15;;;;;;;20.67;12.25;;;28.60;99.90;;;;;;5032752;28;20026;-68
2023/07/05 11:17:43;;;;;;;19.98;11.85;;;28.50;99.90;;;;;;5030722;28;20029;-65
2023/07/05 11:20:39;;;;;;;14.95;11.20;;;28.60;99.90;;;;;;5032974;28;20022;-67
2023/07/05 11:23:11;;;;;;;17.58;12.18;;;28.50;99.90;;;;;;5028735;28;20188;-65
2023/07/05 11:25:59;;;;;;;29.92;19.48;;;28.40;99.90;;;;;;5026798;28;20076;-66
2023/07/05 11:28:35;;;;;;;28.90;15.48;;;28.30;99.90;;;;;;5024928;28;20036;-66
2023/07/05 11:31:04;;;;;;;38.40;25.05;;;28.20;99.90;;;;;;5032945;28;20041;-69
2023/07/05 11:33:30;;;;;;;29.27;17.20;;;28.20;99.90;;;;;;5034421;28;20294;-69
2023/07/05 11:36:08;;;;;;;22.77;13.73;;;28.30;99.90;;;;;;5033327;28;20029;-68
2023/07/05 11:38:40;;;;;;;82.70;56.85;;;28.10;99.90;;;;;;5036621;28;20036;-68
2023/07/05 11:41:08;;;;;;;68.28;44.38;;;28.20;99.90;;;;;;5037536;28;20025;-67
2023/07/05 11:43:41;;;;;;;34.17;23.02;;;28.40;99.90;;;;;;5034227;28;20025;-65
2023/07/05 11:46:48;;;;;;;33.22;21.40;;;28.30;99.90;;;;;;5036673;28;20029;-66
2023/07/05 11:49:28;;;;;;;61.25;38.17;;;28.30;99.90;;;;;;5034940;28;20121;-65
2023/07/05 11:51:58;;;;;;;48.35;29.15;;;28.40;99.90;;;;;;5059045;22;20160;-69
2023/07/05 11:54:36;;;;;;;95.65;63.08;;;28.30;99.90;;;;;;5041190;28;20056;-68
2023/07/05 11:57:07;;;;;;;98.22;58.42;;;28.40;99.90;;;;;;5037594;28;20025;-67
2023/07/05 11:59:37;;;;;;;82.38;45.88;;;28.50;99.90;;;;;;5034366;28;20492;-64
2023/07/05 12:02:21;;;;;;;80.82;46.55;;;28.40;99.90;;;;;;5034986;28;20452;-65
2023/07/05 12:04:53;;;;;;;56.97;32.83;;;28.40;99.90;;;;;;5034773;28;20021;-67
2023/07/05 12:07:21;;;;;;;59.47;28.58;;;28.40;99.90;;;;;;5037825;28;20080;-69
2023/07/05 12:09:49;;;;;;;54.72;28.88;;;28.20;99.90;;;;;;5036274;28;20050;-67
2023/07/05 12:12:20;;;;;;;62.92;38.92;;;28.40;99.90;;;;;;5036516;28;20088;-64
2023/07/05 12:14:46;;;;;;;60.00;40.15;;;28.20;99.90;;;;;;5036517;28;20028;-66
2023/07/05 12:17:14;;;;;;;44.10;27.08;;;28.30;99.90;;;;;;5037882;28;20026;-65
2023/07/05 12:19:41;;;;;;;117.53;77.13;;;28.40;99.90;;;;;;5034106;28;20536;-65
2023/07/05 12:22:25;;;;;;;51.50;33.38;;;28.30;99.90;;;;;;5036498;28;20021;-65
2023/07/05 12:24:56;;;;;;;49.53;31.08;;;28.20;99.90;;;;;;5035439;28;20032;-69
2023/07/05 12:27:32;;;;;;;136.37;93.53;;;28.20;99.90;;;;;;5037289;28;20105;-68
2023/07/05 12:30:03;;;;;;;86.10;61.17;;;28.30;99.90;;;;;;5037840;28;20017;-68
2023/07/05 12:32:31;;;;;;;23.30;14.13;;;28.30;99.90;;;;;;5043192;28;20100;-70
2023/07/05 12:35:09;;;;;;;44.50;37.70;;;28.20;99.90;;;;;;5032225;28;20029;-70
2023/07/05 12:37:36;;;;;;;144.55;112.57;;;28.30;99.90;;;;;;5032584;28;20032;-69
2023/07/05 12:40:14;;;;;;;50.00;35.63;;;28.20;99.90;;;;;;5022751;28;20021;-69
2023/07/05 12:42:53;;;;;;;26.20;15.88;;;28.10;99.90;;;;;;5028594;28;20017;-69
2023/07/05 12:45:32;;;;;;;19.55;12.48;;;28.00;99.90;;;;;;5030769;28;20026;-68
2023/07/05 12:48:25;;;;;;;21.88;13.57;;;28.10;99.90;;;;;;5028497;28;20100;-70